createdAt,value
2018-03-30T00:00:54.825Z,0.00
2018-03-30T00:01:54.851Z,0.00
2018-03-30T00:02:54.878Z,0.00
2018-03-30T00:03:54.903Z,0.00
2018-03-30T00:04:54.929Z,0.00
2018-03-30T00:05:54.955Z,0.00
2018-03-30T00:06:54.981Z,0.00
2018-03-30T00:07:55.006Z,0.00
2018-03-30T00:08:55.033Z,0.00
2018-03-30T00:09:55.059Z,0.00
2018-03-30T00:10:55.084Z,0.00
2018-03-30T00:11:55.110Z,0.00
2018-03-30T00:12:55.135Z,0.00
2018-03-30T00:13:55.161Z,0.00
2018-03-30T00:14:55.192Z,0.00
2018-03-30T00:15:55.214Z,0.00
2018-03-30T00:16:55.238Z,0.00
2018-03-30T00:17:55.265Z,0.00
2018-03-30T00:18:55.292Z,0.00
2018-03-30T00:19:55.318Z,0.00
2018-03-30T00:20:55.343Z,0.00
2018-03-30T00:21:55.368Z,0.00
2018-03-30T00:22:55.395Z,0.00
2018-03-30T00:23:55.420Z,0.00
2018-03-30T00:24:55.445Z,0.00
2018-03-30T00:25:55.471Z,0.00
2018-03-30T00:26:55.545Z,0.00
2018-03-30T00:27:55.524Z,0.00
2018-03-30T00:28:55.549Z,0.00
2018-03-30T00:29:55.579Z,0.00
2018-03-30T00:30:55.601Z,0.00
2018-03-30T00:31:55.627Z,0.00
2018-03-30T00:32:55.654Z,0.00
2018-03-30T00:33:55.678Z,0.00
2018-03-30T00:34:55.704Z,0.00
2018-03-30T00:35:55.730Z,0.00
2018-03-30T00:36:55.753Z,0.00
2018-03-30T00:37:55.779Z,0.00
2018-03-30T00:38:55.806Z,0.00
2018-03-30T00:39:55.831Z,0.00
2018-03-30T00:40:55.856Z,0.00
2018-03-30T00:41:55.883Z,0.00
2018-03-30T00:42:55.907Z,0.00
2018-03-30T00:43:55.935Z,0.00
2018-03-30T00:44:55.960Z,0.00
2018-03-30T00:45:55.986Z,0.00
2018-03-30T00:46:56.016Z,0.00
2018-03-30T00:47:56.038Z,0.00
2018-03-30T00:48:56.064Z,0.00
2018-03-30T00:49:56.088Z,0.00
2018-03-30T00:50:56.114Z,0.00
2018-03-30T00:51:56.140Z,0.00
2018-03-30T00:52:56.164Z,0.00
2018-03-30T00:53:56.191Z,0.00
2018-03-30T00:54:56.217Z,0.00
2018-03-30T00:55:56.242Z,0.00
2018-03-30T00:56:56.272Z,0.00
2018-03-30T00:57:56.294Z,0.00
2018-03-30T00:58:56.319Z,0.00
2018-03-30T00:59:56.345Z,0.00
2018-03-30T01:00:56.369Z,0.00
2018-03-30T01:01:56.395Z,0.00
2018-03-30T01:02:56.422Z,0.00
2018-03-30T01:03:56.447Z,0.00
2018-03-30T01:04:56.471Z,0.00
2018-03-30T01:05:56.501Z,0.00
2018-03-30T01:06:56.522Z,0.00
2018-03-30T01:07:56.551Z,0.00
2018-03-30T01:08:56.575Z,0.00
2018-03-30T01:09:56.601Z,0.00
2018-03-30T01:10:56.631Z,0.00
2018-03-30T01:11:56.652Z,0.00
2018-03-30T01:12:56.677Z,0.00
2018-03-30T01:13:56.703Z,0.00
2018-03-30T01:14:56.727Z,0.00
2018-03-30T01:15:56.757Z,0.00
2018-03-30T01:16:56.779Z,0.00
2018-03-30T01:17:56.804Z,0.00
2018-03-30T01:18:56.830Z,0.00
2018-03-30T01:19:56.857Z,0.00
2018-03-30T01:20:56.881Z,0.00
2018-03-30T01:21:56.906Z,0.00
2018-03-30T01:22:56.934Z,0.00
2018-03-30T01:23:56.958Z,0.00
2018-03-30T01:24:56.981Z,0.00
2018-03-30T01:25:57.017Z,0.00
2018-03-30T01:26:57.034Z,0.00
2018-03-30T01:27:57.060Z,0.00
2018-03-30T01:28:57.083Z,0.00
2018-03-30T01:29:57.110Z,0.00
2018-03-30T01:30:57.135Z,0.00
2018-03-30T01:31:57.161Z,0.00
2018-03-30T01:32:57.186Z,0.00
2018-03-30T01:33:57.211Z,0.00
2018-03-30T01:34:57.237Z,0.00
2018-03-30T01:35:57.262Z,0.00
2018-03-30T01:36:57.287Z,0.00
2018-03-30T01:37:57.313Z,0.00
2018-03-30T01:38:57.338Z,0.00
2018-03-30T01:39:57.364Z,0.00
2018-03-30T01:40:57.389Z,0.00
2018-03-30T01:41:57.414Z,0.00
2018-03-30T01:42:57.440Z,0.00
2018-03-30T01:43:57.464Z,0.00
2018-03-30T01:44:57.490Z,0.00
2018-03-30T01:45:57.516Z,0.00
2018-03-30T01:46:57.541Z,0.00
2018-03-30T01:47:57.565Z,0.00
2018-03-30T01:48:57.591Z,0.00
2018-03-30T01:49:57.620Z,0.00
2018-03-30T01:50:57.642Z,0.00
2018-03-30T01:51:57.668Z,0.00
2018-03-30T01:52:57.692Z,0.00
2018-03-30T01:53:57.715Z,0.00
2018-03-30T01:54:57.743Z,0.00
2018-03-30T01:55:57.771Z,0.00
2018-03-30T01:56:57.793Z,0.00
2018-03-30T01:57:57.818Z,0.00
2018-03-30T01:58:57.866Z,0.00
2018-03-30T01:59:57.871Z,0.00
2018-03-30T02:00:57.895Z,0.00
2018-03-30T02:01:57.921Z,0.00
2018-03-30T02:02:57.947Z,0.00
2018-03-30T02:03:57.970Z,0.00
2018-03-30T02:04:57.994Z,0.00
2018-03-30T02:05:58.020Z,0.00
2018-03-30T02:06:58.046Z,0.00
2018-03-30T02:07:58.072Z,0.00
2018-03-30T02:08:58.096Z,0.00
2018-03-30T02:09:58.122Z,0.00
2018-03-30T02:10:58.152Z,0.00
2018-03-30T02:11:58.176Z,0.00
2018-03-30T02:12:58.198Z,0.00
2018-03-30T02:13:58.227Z,0.00
2018-03-30T02:14:58.248Z,0.00
2018-03-30T02:15:58.307Z,0.00
2018-03-30T02:16:58.296Z,0.00
2018-03-30T02:17:58.328Z,0.00
2018-03-30T02:18:58.348Z,0.00
2018-03-30T02:19:58.382Z,0.00
2018-03-30T02:20:58.398Z,0.00
2018-03-30T02:21:58.424Z,0.00
2018-03-30T02:22:58.448Z,0.00
2018-03-30T02:23:58.474Z,0.00
2018-03-30T02:24:58.499Z,0.00
2018-03-30T02:25:58.524Z,0.00
2018-03-30T02:26:58.551Z,0.00
2018-03-30T02:27:58.575Z,0.00
2018-03-30T02:28:58.600Z,0.00
2018-03-30T02:29:58.626Z,0.00
2018-03-30T02:30:58.652Z,0.00
2018-03-30T02:31:58.679Z,0.00
2018-03-30T02:32:58.702Z,0.00
2018-03-30T02:33:58.725Z,0.00
2018-03-30T02:34:58.752Z,0.00
2018-03-30T02:35:58.780Z,0.00
2018-03-30T02:36:58.811Z,0.00
2018-03-30T02:37:58.829Z,0.00
2018-03-30T02:38:58.852Z,0.00
2018-03-30T02:39:58.879Z,0.00
2018-03-30T02:40:58.904Z,0.00
2018-03-30T02:41:58.928Z,0.00
2018-03-30T02:42:58.954Z,0.00
2018-03-30T02:43:58.980Z,0.00
2018-03-30T02:44:59.004Z,0.00
2018-03-30T02:45:59.030Z,0.00
2018-03-30T02:46:59.054Z,0.00
2018-03-30T02:47:59.083Z,0.00
2018-03-30T02:48:59.105Z,0.00
2018-03-30T02:49:59.130Z,0.00
2018-03-30T02:50:59.156Z,0.00
2018-03-30T02:51:59.181Z,0.00
2018-03-30T02:52:59.205Z,0.00
2018-03-30T02:53:59.231Z,0.00
2018-03-30T02:54:59.256Z,0.00
2018-03-30T02:55:59.281Z,0.00
2018-03-30T02:56:59.316Z,0.00
2018-03-30T02:57:59.333Z,0.00
2018-03-30T02:58:59.357Z,0.00
2018-03-30T02:59:59.383Z,0.00
2018-03-30T03:00:59.406Z,0.00
2018-03-30T03:01:59.434Z,0.00
2018-03-30T03:02:59.457Z,0.00
2018-03-30T03:03:59.483Z,0.00
2018-03-30T03:04:59.507Z,0.00
2018-03-30T03:05:59.549Z,0.00
2018-03-30T03:06:59.559Z,0.00
2018-03-30T03:07:59.583Z,0.00
2018-03-30T03:08:59.607Z,0.00
2018-03-30T03:09:59.633Z,0.00
2018-03-30T03:10:59.658Z,0.00
2018-03-30T03:11:59.684Z,0.00
2018-03-30T03:12:59.707Z,0.00
2018-03-30T03:13:59.732Z,0.00
2018-03-30T03:14:59.759Z,0.00
2018-03-30T03:15:59.790Z,0.00
2018-03-30T03:16:59.806Z,0.00
2018-03-30T03:17:59.837Z,0.00
2018-03-30T03:18:59.858Z,0.00
2018-03-30T03:19:59.885Z,0.00
2018-03-30T03:20:59.909Z,0.00
2018-03-30T03:21:59.934Z,0.00
2018-03-30T03:22:59.960Z,0.00
2018-03-30T03:23:59.990Z,0.00
2018-03-30T03:25:00.013Z,0.00
2018-03-30T03:26:00.037Z,0.00
2018-03-30T03:27:00.061Z,0.00
2018-03-30T03:28:00.086Z,0.00
2018-03-30T03:29:00.110Z,0.00
2018-03-30T03:30:00.146Z,0.00
2018-03-30T03:31:00.162Z,0.00
2018-03-30T03:32:00.188Z,0.00
2018-03-30T03:33:00.211Z,0.00
2018-03-30T03:34:00.237Z,0.00
2018-03-30T03:35:00.262Z,0.00
2018-03-30T03:36:00.287Z,0.00
2018-03-30T03:37:00.311Z,0.00
2018-03-30T03:38:00.338Z,0.00
2018-03-30T03:39:00.362Z,0.00
2018-03-30T03:40:00.388Z,0.00
2018-03-30T03:41:00.423Z,0.00
2018-03-30T03:42:00.443Z,0.00
2018-03-30T03:43:00.464Z,0.00
2018-03-30T03:44:00.495Z,0.00
2018-03-30T03:45:00.514Z,0.00
2018-03-30T03:46:00.541Z,0.00
2018-03-30T03:47:00.564Z,0.00
2018-03-30T03:48:00.594Z,0.00
2018-03-30T03:49:00.614Z,0.00
2018-03-30T03:50:00.639Z,0.00
2018-03-30T03:51:00.665Z,0.00
2018-03-30T03:52:00.696Z,0.00
2018-03-30T03:53:00.715Z,0.00
2018-03-30T03:54:00.739Z,0.00
2018-03-30T03:55:00.765Z,0.00
2018-03-30T03:56:00.790Z,0.00
2018-03-30T03:57:00.816Z,0.00
2018-03-30T03:58:00.842Z,0.00
2018-03-30T03:59:00.865Z,0.00
2018-03-30T04:00:00.891Z,0.00
2018-03-30T04:01:00.916Z,0.00
2018-03-30T04:02:00.947Z,0.00
2018-03-30T04:03:00.968Z,0.00
2018-03-30T04:04:00.991Z,0.00
2018-03-30T04:05:01.017Z,0.00
2018-03-30T04:06:01.041Z,0.00
2018-03-30T04:07:01.067Z,0.00
2018-03-30T04:08:01.094Z,0.00
2018-03-30T04:09:01.116Z,0.00
2018-03-30T04:10:01.142Z,0.00
2018-03-30T04:11:01.169Z,0.00
2018-03-30T04:12:01.193Z,0.00
2018-03-30T04:13:01.219Z,0.00
2018-03-30T04:14:01.242Z,0.00
2018-03-30T04:15:01.267Z,0.00
2018-03-30T04:16:01.293Z,0.00
2018-03-30T04:17:01.318Z,0.00
2018-03-30T04:18:01.343Z,0.00
2018-03-30T04:19:01.369Z,0.00
2018-03-30T04:20:01.394Z,0.00
2018-03-30T04:21:01.418Z,0.00
2018-03-30T04:22:01.442Z,0.00
2018-03-30T04:23:01.468Z,0.00
2018-03-30T04:24:01.492Z,0.00
2018-03-30T04:25:01.518Z,0.00
2018-03-30T04:26:01.544Z,0.00
2018-03-30T04:27:01.575Z,0.00
2018-03-30T04:28:01.596Z,0.00
2018-03-30T04:29:01.617Z,0.00
2018-03-30T04:30:01.643Z,0.00
2018-03-30T04:31:01.667Z,0.00
2018-03-30T04:32:01.694Z,0.00
2018-03-30T04:33:01.717Z,0.00
2018-03-30T04:34:01.743Z,0.00
2018-03-30T04:35:01.768Z,0.00
2018-03-30T04:36:01.793Z,0.00
2018-03-30T04:37:01.817Z,0.00
2018-03-30T04:38:01.842Z,0.00
2018-03-30T04:39:01.868Z,0.00
2018-03-30T04:40:01.892Z,0.00
2018-03-30T04:41:01.917Z,0.00
2018-03-30T04:42:01.943Z,0.00
2018-03-30T04:43:01.969Z,0.00
2018-03-30T04:44:01.993Z,0.00
2018-03-30T04:45:02.017Z,0.00
2018-03-30T04:46:02.042Z,0.00
2018-03-30T04:47:02.067Z,0.00
2018-03-30T04:48:02.092Z,0.00
2018-03-30T04:49:02.118Z,0.00
2018-03-30T04:50:02.156Z,0.00
2018-03-30T04:51:02.169Z,0.00
2018-03-30T04:52:02.192Z,0.00
2018-03-30T04:53:02.218Z,0.00
2018-03-30T04:54:02.241Z,0.00
2018-03-30T04:55:02.267Z,0.00
2018-03-30T04:56:02.292Z,0.00
2018-03-30T04:57:02.316Z,0.00
2018-03-30T04:58:02.342Z,0.00
2018-03-30T04:59:02.367Z,0.00
2018-03-30T05:00:02.393Z,0.00
2018-03-30T05:01:02.416Z,0.00
2018-03-30T05:02:02.445Z,0.00
2018-03-30T05:03:02.466Z,0.00
2018-03-30T05:04:02.491Z,0.00
2018-03-30T05:05:02.515Z,0.00
2018-03-30T05:06:02.541Z,0.00
2018-03-30T05:07:02.565Z,5.63
2018-03-30T05:08:02.591Z,5.63
2018-03-30T05:09:02.615Z,5.63
2018-03-30T05:10:02.638Z,5.63
2018-03-30T05:11:02.665Z,5.63
2018-03-30T05:12:02.689Z,5.63
2018-03-30T05:13:02.713Z,5.63
2018-03-30T05:14:02.739Z,11.25
2018-03-30T05:15:02.767Z,11.25
2018-03-30T05:16:02.788Z,11.25
2018-03-30T05:17:02.813Z,11.25
2018-03-30T05:18:02.842Z,11.25
2018-03-30T05:19:02.862Z,16.88
2018-03-30T05:20:02.888Z,16.88
2018-03-30T05:21:02.912Z,16.88
2018-03-30T05:22:02.990Z,16.88
2018-03-30T05:23:02.963Z,22.50
2018-03-30T05:24:02.988Z,22.50
2018-03-30T05:25:03.012Z,22.50
2018-03-30T05:26:03.036Z,22.50
2018-03-30T05:27:03.062Z,28.13
2018-03-30T05:28:03.092Z,28.13
2018-03-30T05:29:03.111Z,28.13
2018-03-30T05:30:03.137Z,33.75
2018-03-30T05:31:03.162Z,33.75
2018-03-30T05:32:03.187Z,33.75
2018-03-30T05:33:03.211Z,33.75
2018-03-30T05:34:03.236Z,39.38
2018-03-30T05:35:03.259Z,39.38
2018-03-30T05:36:03.286Z,39.38
2018-03-30T05:37:03.310Z,45.00
2018-03-30T05:38:03.335Z,45.00
2018-03-30T05:39:03.362Z,50.63
2018-03-30T05:40:03.390Z,50.63
2018-03-30T05:41:03.410Z,50.63
2018-03-30T05:42:03.436Z,56.25
2018-03-30T05:43:03.460Z,56.25
2018-03-30T05:44:03.486Z,56.25
2018-03-30T05:45:03.514Z,56.25
2018-03-30T05:46:03.536Z,56.25
2018-03-30T05:47:03.562Z,61.88
2018-03-30T05:48:03.586Z,61.88
2018-03-30T05:49:03.612Z,67.50
2018-03-30T05:50:03.639Z,67.50
2018-03-30T05:51:03.660Z,73.13
2018-03-30T05:52:03.685Z,73.13
2018-03-30T05:53:03.710Z,73.13
2018-03-30T05:54:03.737Z,78.75
2018-03-30T05:55:03.763Z,78.75
2018-03-30T05:56:03.787Z,84.38
2018-03-30T05:57:03.812Z,84.38
2018-03-30T05:58:03.837Z,84.38
2018-03-30T05:59:03.862Z,90.00
2018-03-30T06:00:03.888Z,90.00
2018-03-30T06:01:03.913Z,90.00
2018-03-30T06:02:03.938Z,90.00
2018-03-30T06:03:03.964Z,90.00
2018-03-30T06:04:03.989Z,95.63
2018-03-30T06:05:04.014Z,95.63
2018-03-30T06:06:04.043Z,95.63
2018-03-30T06:07:04.064Z,101.25
2018-03-30T06:08:04.129Z,101.25
2018-03-30T06:09:04.115Z,101.25
2018-03-30T06:10:04.145Z,106.88
2018-03-30T06:11:04.166Z,106.88
2018-03-30T06:12:04.191Z,106.88
2018-03-30T06:13:04.216Z,112.50
2018-03-30T06:14:04.242Z,118.13
2018-03-30T06:15:04.269Z,106.88
2018-03-30T06:16:04.299Z,112.50
2018-03-30T06:17:04.318Z,118.13
2018-03-30T06:18:04.345Z,118.13
2018-03-30T06:19:04.405Z,118.13
2018-03-30T06:21:04.421Z,123.75
2018-03-30T06:22:04.447Z,123.75
2018-03-30T06:23:04.474Z,123.75
2018-03-30T06:24:04.502Z,123.75
2018-03-30T06:25:04.524Z,118.13
2018-03-30T06:26:04.550Z,123.75
2018-03-30T06:27:04.576Z,123.75
2018-03-30T06:28:04.602Z,129.38
2018-03-30T06:29:04.628Z,129.38
2018-03-30T06:30:04.654Z,129.38
2018-03-30T06:31:04.680Z,140.63
2018-03-30T06:32:04.707Z,140.63
2018-03-30T06:33:04.732Z,140.63
2018-03-30T06:34:04.758Z,146.25
2018-03-30T06:35:04.787Z,140.63
2018-03-30T06:36:04.810Z,146.25
2018-03-30T06:37:04.841Z,151.88
2018-03-30T06:38:04.862Z,151.88
2018-03-30T06:39:04.889Z,157.50
2018-03-30T06:40:04.914Z,157.50
2018-03-30T06:41:04.941Z,157.50
2018-03-30T06:42:04.968Z,157.50
2018-03-30T06:43:04.994Z,157.50
2018-03-30T06:44:05.025Z,157.50
2018-03-30T06:45:05.047Z,151.88
2018-03-30T06:46:05.074Z,157.50
2018-03-30T06:47:05.105Z,163.13
2018-03-30T06:48:05.128Z,157.50
2018-03-30T06:49:05.154Z,163.13
2018-03-30T06:50:05.186Z,157.50
2018-03-30T06:51:05.208Z,168.75
2018-03-30T06:52:05.235Z,168.75
2018-03-30T06:53:05.260Z,168.75
2018-03-30T06:54:05.287Z,174.38
2018-03-30T06:55:05.314Z,180.00
2018-03-30T06:56:05.342Z,185.63
2018-03-30T06:57:05.368Z,191.25
2018-03-30T06:58:05.394Z,191.25
2018-03-30T06:59:05.422Z,191.25
2018-03-30T07:00:05.449Z,196.88
2018-03-30T07:01:05.480Z,196.88
2018-03-30T07:02:05.507Z,202.50
2018-03-30T07:03:05.529Z,208.13
2018-03-30T07:04:05.557Z,219.38
2018-03-30T07:05:05.584Z,225.00
2018-03-30T07:06:05.611Z,236.25
2018-03-30T07:07:05.686Z,236.25
2018-03-30T07:08:05.665Z,236.25
2018-03-30T07:09:05.695Z,230.63
2018-03-30T07:10:05.719Z,225.00
2018-03-30T07:11:05.747Z,230.63
2018-03-30T07:12:05.776Z,236.25
2018-03-30T07:13:05.800Z,241.88
2018-03-30T07:14:05.828Z,253.13
2018-03-30T07:15:05.857Z,247.50
2018-03-30T07:16:05.942Z,253.13
2018-03-30T07:17:05.912Z,253.13
2018-03-30T07:18:05.940Z,258.75
2018-03-30T07:19:05.967Z,275.63
2018-03-30T07:20:05.995Z,275.63
2018-03-30T07:21:06.022Z,270.00
2018-03-30T07:22:06.051Z,275.63
2018-03-30T07:23:06.078Z,270.00
2018-03-30T07:24:06.106Z,270.00
2018-03-30T07:25:06.134Z,264.38
2018-03-30T07:26:06.162Z,270.00
2018-03-30T07:27:06.192Z,275.63
2018-03-30T07:28:06.219Z,275.63
2018-03-30T07:29:06.248Z,281.25
2018-03-30T07:30:06.277Z,292.50
2018-03-30T07:31:06.304Z,298.13
2018-03-30T07:32:06.334Z,303.75
2018-03-30T07:33:06.362Z,303.75
2018-03-30T07:34:06.442Z,298.13
2018-03-30T07:35:06.420Z,315.00
2018-03-30T07:36:06.448Z,331.88
2018-03-30T07:37:06.509Z,337.50
2018-03-30T07:38:06.508Z,331.88
2018-03-30T07:39:06.537Z,331.88
2018-03-30T07:40:06.565Z,326.25
2018-03-30T07:41:06.593Z,331.88
2018-03-30T07:42:06.623Z,326.25
2018-03-30T07:43:06.653Z,331.88
2018-03-30T07:44:06.682Z,337.50
2018-03-30T07:45:06.719Z,343.13
2018-03-30T07:46:06.742Z,337.50
2018-03-30T07:47:06.770Z,337.50
2018-03-30T07:48:06.801Z,337.50
2018-03-30T07:49:06.829Z,343.13
2018-03-30T07:50:06.860Z,343.13
2018-03-30T07:51:06.891Z,343.13
2018-03-30T07:52:06.966Z,348.75
2018-03-30T07:53:06.951Z,354.38
2018-03-30T07:54:06.982Z,365.63
2018-03-30T07:55:07.012Z,371.25
2018-03-30T07:56:07.042Z,365.63
2018-03-30T07:57:07.072Z,354.38
2018-03-30T07:58:07.104Z,360.00
2018-03-30T07:59:07.134Z,365.63
2018-03-30T08:00:07.166Z,360.00
2018-03-30T08:01:07.196Z,360.00
2018-03-30T08:02:07.226Z,360.00
2018-03-30T08:03:07.259Z,348.75
2018-03-30T08:04:07.289Z,365.63
2018-03-30T08:05:07.320Z,376.88
2018-03-30T08:06:07.353Z,354.38
2018-03-30T08:07:07.384Z,354.38
2018-03-30T08:08:07.416Z,354.38
2018-03-30T08:09:07.504Z,348.75
2018-03-30T08:10:07.477Z,348.75
2018-03-30T08:11:07.509Z,348.75
2018-03-30T08:12:07.542Z,354.38
2018-03-30T08:13:07.573Z,354.38
2018-03-30T08:14:07.605Z,365.63
2018-03-30T08:15:07.636Z,365.63
2018-03-30T08:16:07.669Z,393.75
2018-03-30T08:17:07.701Z,376.88
2018-03-30T08:18:07.734Z,405.00
2018-03-30T08:19:07.770Z,405.00
2018-03-30T08:20:07.798Z,399.38
2018-03-30T08:21:07.832Z,382.50
2018-03-30T08:22:07.860Z,371.25
2018-03-30T08:23:07.895Z,382.50
2018-03-30T08:24:07.928Z,371.25
2018-03-30T08:25:07.960Z,365.63
2018-03-30T08:26:07.993Z,376.88
2018-03-30T08:27:08.026Z,388.13
2018-03-30T08:28:08.060Z,399.38
2018-03-30T08:29:08.092Z,410.63
2018-03-30T08:30:08.125Z,405.00
2018-03-30T08:31:08.160Z,405.00
2018-03-30T08:32:08.193Z,410.63
2018-03-30T08:33:08.226Z,421.88
2018-03-30T08:34:08.265Z,438.75
2018-03-30T08:35:08.293Z,450.00
2018-03-30T08:36:08.328Z,444.38
2018-03-30T08:37:08.360Z,405.00
2018-03-30T08:38:08.396Z,393.75
2018-03-30T08:39:08.430Z,410.63
2018-03-30T08:40:08.463Z,438.75
2018-03-30T08:41:08.498Z,433.13
2018-03-30T08:42:08.533Z,421.88
2018-03-30T08:43:08.568Z,427.50
2018-03-30T08:44:08.602Z,427.50
2018-03-30T08:45:08.635Z,410.63
2018-03-30T08:46:08.671Z,399.38
2018-03-30T08:47:08.706Z,410.63
2018-03-30T08:48:08.741Z,382.50
2018-03-30T08:49:08.775Z,393.75
2018-03-30T08:50:08.811Z,393.75
2018-03-30T08:51:08.845Z,410.63
2018-03-30T08:52:08.881Z,450.00
2018-03-30T08:53:08.914Z,371.25
2018-03-30T08:54:08.954Z,354.38
2018-03-30T08:55:08.983Z,433.13
2018-03-30T08:56:09.020Z,461.25
2018-03-30T08:57:09.054Z,528.75
2018-03-30T08:58:09.089Z,450.00
2018-03-30T08:59:09.125Z,511.88
2018-03-30T09:00:09.160Z,466.88
2018-03-30T09:01:09.194Z,472.50
2018-03-30T09:02:09.280Z,483.75
2018-03-30T09:03:09.265Z,489.38
2018-03-30T09:04:09.299Z,585.00
2018-03-30T09:05:09.334Z,1029.38
2018-03-30T09:06:09.368Z,1524.38
2018-03-30T09:07:09.405Z,1653.75
2018-03-30T09:08:09.440Z,1732.50
2018-03-30T09:09:09.476Z,1878.75
2018-03-30T09:10:09.512Z,1906.88
2018-03-30T09:11:09.550Z,1991.25
2018-03-30T09:12:09.586Z,1878.75
2018-03-30T09:13:09.623Z,1957.50
2018-03-30T09:14:09.666Z,1698.75
2018-03-30T09:15:09.702Z,1839.38
2018-03-30T09:16:09.738Z,1535.63
2018-03-30T09:17:09.777Z,1361.25
2018-03-30T09:18:09.817Z,1811.25
2018-03-30T09:19:09.856Z,1805.63
2018-03-30T09:20:09.896Z,1873.13
2018-03-30T09:21:09.937Z,1856.25
2018-03-30T09:22:09.978Z,1822.50
2018-03-30T09:23:10.016Z,2025.00
2018-03-30T09:24:10.061Z,1957.50
2018-03-30T09:25:10.099Z,1867.50
2018-03-30T09:26:10.142Z,1693.13
2018-03-30T09:27:10.183Z,1816.88
2018-03-30T09:28:10.225Z,1901.25
2018-03-30T09:29:10.266Z,1524.38
2018-03-30T09:30:10.309Z,1513.13
2018-03-30T09:31:10.351Z,1288.13
2018-03-30T09:32:10.396Z,1136.25
2018-03-30T09:33:10.438Z,1035.00
2018-03-30T09:34:10.480Z,1260.00
2018-03-30T09:35:10.523Z,1350.00
2018-03-30T09:36:10.566Z,1316.25
2018-03-30T09:37:10.608Z,1406.25
2018-03-30T09:38:10.652Z,1653.75
2018-03-30T09:39:10.694Z,2008.13
2018-03-30T09:40:10.738Z,1878.75
2018-03-30T09:41:10.779Z,2126.25
2018-03-30T09:42:10.823Z,2075.63
2018-03-30T09:43:10.866Z,1946.25
2018-03-30T09:44:10.910Z,2002.50
2018-03-30T09:45:10.952Z,2098.13
2018-03-30T09:46:11.000Z,2227.50
2018-03-30T09:47:11.044Z,2115.00
2018-03-30T09:48:11.085Z,2120.63
2018-03-30T09:49:11.131Z,2188.13
2018-03-30T09:50:11.174Z,2244.38
2018-03-30T09:51:11.221Z,1946.25
2018-03-30T09:52:11.267Z,1693.13
2018-03-30T09:53:11.312Z,1445.63
2018-03-30T09:54:11.357Z,1440.00
2018-03-30T09:55:11.403Z,1456.88
2018-03-30T09:56:11.450Z,1248.75
2018-03-30T09:57:11.495Z,1091.25
2018-03-30T09:58:11.540Z,1136.25
2018-03-30T09:59:11.586Z,1130.63
2018-03-30T10:00:11.632Z,1091.25
2018-03-30T10:01:11.677Z,973.13
2018-03-30T10:02:11.720Z,905.63
2018-03-30T10:03:11.766Z,804.38
2018-03-30T10:04:11.811Z,725.63
2018-03-30T10:05:11.855Z,658.13
2018-03-30T10:06:11.899Z,573.75
2018-03-30T10:07:11.942Z,534.38
2018-03-30T10:08:11.993Z,500.63
2018-03-30T10:09:12.030Z,472.50
2018-03-30T10:10:12.071Z,450.00
2018-03-30T10:11:12.114Z,421.88
2018-03-30T10:12:12.157Z,405.00
2018-03-30T10:13:12.197Z,376.88
2018-03-30T10:14:12.239Z,354.38
2018-03-30T10:15:12.281Z,348.75
2018-03-30T10:16:12.321Z,343.13
2018-03-30T10:17:12.361Z,337.50
2018-03-30T10:18:12.402Z,326.25
2018-03-30T10:19:12.442Z,315.00
2018-03-30T10:20:12.483Z,303.75
2018-03-30T10:21:12.519Z,303.75
2018-03-30T10:22:12.560Z,298.13
2018-03-30T10:23:12.604Z,303.75
2018-03-30T10:24:12.638Z,303.75
2018-03-30T10:25:12.691Z,309.38
2018-03-30T10:26:12.714Z,309.38
2018-03-30T10:27:12.752Z,320.63
2018-03-30T10:28:12.791Z,315.00
2018-03-30T10:29:12.832Z,315.00
2018-03-30T10:30:12.866Z,315.00
2018-03-30T10:31:12.902Z,309.38
2018-03-30T10:32:12.941Z,303.75
2018-03-30T10:33:12.977Z,303.75
2018-03-30T10:34:13.014Z,303.75
2018-03-30T10:35:13.049Z,298.13
2018-03-30T10:36:13.087Z,298.13
2018-03-30T10:37:13.124Z,298.13
2018-03-30T10:38:13.159Z,298.13
2018-03-30T10:39:13.195Z,303.75
2018-03-30T10:40:13.230Z,292.50
2018-03-30T10:41:13.268Z,292.50
2018-03-30T10:42:13.302Z,286.88
2018-03-30T10:43:13.336Z,281.25
2018-03-30T10:44:13.372Z,270.00
2018-03-30T10:45:13.409Z,258.75
2018-03-30T10:46:13.443Z,258.75
2018-03-30T10:47:13.477Z,247.50
2018-03-30T10:48:13.514Z,241.88
2018-03-30T10:49:13.548Z,236.25
2018-03-30T10:50:13.584Z,225.00
2018-03-30T10:51:13.621Z,219.38
2018-03-30T10:52:13.653Z,208.13
2018-03-30T10:53:13.695Z,208.13
2018-03-30T10:54:13.721Z,202.50
2018-03-30T10:55:13.761Z,191.25
2018-03-30T10:56:13.792Z,180.00
2018-03-30T10:57:13.826Z,168.75
2018-03-30T10:58:13.859Z,157.50
2018-03-30T10:59:13.896Z,151.88
2018-03-30T11:00:13.929Z,151.88
2018-03-30T11:01:13.964Z,157.50
2018-03-30T11:02:13.997Z,151.88
2018-03-30T11:03:14.032Z,151.88
2018-03-30T11:04:14.066Z,151.88
2018-03-30T11:05:14.153Z,163.13
2018-03-30T11:06:14.134Z,168.75
2018-03-30T11:07:14.167Z,163.13
2018-03-30T11:08:14.200Z,163.13
2018-03-30T11:09:14.235Z,168.75
2018-03-30T11:10:14.269Z,180.00
2018-03-30T11:11:14.302Z,196.88
2018-03-30T11:12:14.336Z,213.75
2018-03-30T11:13:14.369Z,230.63
2018-03-30T11:14:14.403Z,236.25
2018-03-30T11:15:14.440Z,241.88
2018-03-30T11:16:14.471Z,253.13
2018-03-30T11:17:14.503Z,258.75
2018-03-30T11:18:14.537Z,270.00
2018-03-30T11:19:14.571Z,286.88
2018-03-30T11:20:14.605Z,309.38
2018-03-30T11:21:14.637Z,320.63
2018-03-30T11:22:14.672Z,303.75
2018-03-30T11:23:14.709Z,303.75
2018-03-30T11:24:14.740Z,320.63
2018-03-30T11:25:14.772Z,337.50
2018-03-30T11:26:14.805Z,371.25
2018-03-30T11:27:14.840Z,427.50
2018-03-30T11:28:14.873Z,495.00
2018-03-30T11:29:14.906Z,455.63
2018-03-30T11:30:14.941Z,455.63
2018-03-30T11:31:14.974Z,427.50
2018-03-30T11:32:15.014Z,365.63
2018-03-30T11:33:15.043Z,337.50
2018-03-30T11:34:15.076Z,360.00
2018-03-30T11:35:15.110Z,405.00
2018-03-30T11:36:15.143Z,483.75
2018-03-30T11:37:15.178Z,568.13
2018-03-30T11:38:15.215Z,540.00
2018-03-30T11:39:15.247Z,545.63
2018-03-30T11:40:15.281Z,573.75
2018-03-30T11:41:15.317Z,624.38
2018-03-30T11:42:15.348Z,697.50
2018-03-30T11:43:15.382Z,759.38
2018-03-30T11:44:15.418Z,804.38
2018-03-30T11:45:15.452Z,978.75
2018-03-30T11:46:15.487Z,950.63
2018-03-30T11:47:15.522Z,916.88
2018-03-30T11:48:15.557Z,916.88
2018-03-30T11:49:15.591Z,1102.50
2018-03-30T11:50:15.628Z,1440.00
2018-03-30T11:51:15.663Z,1260.00
2018-03-30T11:52:15.698Z,1035.00
2018-03-30T11:53:15.733Z,1344.38
2018-03-30T11:54:15.769Z,883.13
2018-03-30T11:55:15.806Z,990.00
2018-03-30T11:56:15.844Z,1816.88
2018-03-30T11:57:15.879Z,1530.00
2018-03-30T11:58:15.917Z,1428.75
2018-03-30T11:59:15.955Z,1766.25
2018-03-30T12:00:15.992Z,1541.25
2018-03-30T12:01:16.030Z,1603.13
2018-03-30T12:02:16.067Z,1726.88
2018-03-30T12:03:16.157Z,1833.75
2018-03-30T12:04:16.147Z,1946.25
2018-03-30T12:05:16.186Z,2019.38
2018-03-30T12:06:16.225Z,2025.00
2018-03-30T12:07:16.266Z,2165.63
2018-03-30T12:08:16.306Z,2340.00
2018-03-30T12:09:16.354Z,2604.38
2018-03-30T12:10:16.388Z,2480.63
2018-03-30T12:11:16.431Z,2835.00
2018-03-30T12:12:16.473Z,2846.25
2018-03-30T12:13:16.515Z,2970.00
2018-03-30T12:14:16.559Z,2925.00
2018-03-30T12:15:16.602Z,3037.50
2018-03-30T12:16:16.647Z,2806.88
2018-03-30T12:17:16.691Z,3009.38
2018-03-30T12:18:16.744Z,2840.63
2018-03-30T12:19:16.784Z,2823.75
2018-03-30T12:20:16.841Z,2626.88
2018-03-30T12:21:16.877Z,2430.00
2018-03-30T12:22:16.925Z,1091.25
2018-03-30T12:23:16.972Z,1130.63
2018-03-30T12:24:17.019Z,1501.88
2018-03-30T12:25:17.068Z,1603.13
2018-03-30T12:26:17.118Z,1850.63
2018-03-30T12:27:17.164Z,1113.75
2018-03-30T12:28:17.212Z,855.00
2018-03-30T12:29:17.258Z,905.63
2018-03-30T12:30:17.307Z,1558.13
2018-03-30T12:31:17.353Z,2064.38
2018-03-30T12:32:17.401Z,1935.00
2018-03-30T12:33:17.446Z,2019.38
2018-03-30T12:34:17.495Z,1648.13
2018-03-30T12:35:17.541Z,2801.25
2018-03-30T12:36:17.589Z,1732.50
2018-03-30T12:37:17.634Z,2778.75
2018-03-30T12:38:17.681Z,2604.38
2018-03-30T12:39:17.729Z,1951.88
2018-03-30T12:40:17.777Z,1147.50
2018-03-30T12:41:17.825Z,2283.75
2018-03-30T12:42:17.871Z,2030.63
2018-03-30T12:43:17.917Z,1614.38
2018-03-30T12:44:17.966Z,1383.75
2018-03-30T12:45:18.018Z,1372.50
2018-03-30T12:46:18.081Z,1209.38
2018-03-30T12:47:18.109Z,1237.50
2018-03-30T12:48:18.158Z,1130.63